Terminal Aerodrome Forecast
Issued by NWS Cleveland, OH

Home | Current Version | Previous Version | Graphics & Text | Print | Product List | Glossary On
Versions: 1 2 3 4 5 6 7 8 9 10 11 12 13 14 15
937
FTUS41 KCLE 051136
TAFYNG
TAF
KYNG 051136Z 0512/0612 29007KT P6SM OVC035
     FM051700 26007KT P6SM BKN060
     FM060000 20004KT P6SM BKN120
     FM060600 19007KT P6SM OVC040=

USA.gov is the U.S. government's official web portal to all federal, state and local government web resources and services.